sensor_id;sensor_type;location;lat;lon;timestamp;P1;durP1;ratioP1;P2;durP2;ratioP2
46651;SDS011;32377;52.182;5.398;2022-08-11T00:01:48;5.32;;;3.22;;
46651;SDS011;32377;52.182;5.398;2022-08-11T00:04:17;7.85;;;3.35;;
46651;SDS011;32377;52.182;5.398;2022-08-11T00:06:45;6.60;;;2.83;;
46651;SDS011;32377;52.182;5.398;2022-08-11T00:09:16;8.13;;;3.10;;
46651;SDS011;32377;52.182;5.398;2022-08-11T00:11:46;11.25;;;3.20;;
46651;SDS011;32377;52.182;5.398;2022-08-11T00:14:17;6.47;;;3.53;;
46651;SDS011;32377;52.182;5.398;2022-08-11T00:17:07;5.75;;;3.22;;
46651;SDS011;32377;52.182;5.398;2022-08-11T00:19:40;8.95;;;3.47;;
46651;SDS011;32377;52.182;5.398;2022-08-11T00:22:08;6.25;;;2.95;;
46651;SDS011;32377;52.182;5.398;2022-08-11T00:24:37;5.22;;;3.20;;
46651;SDS011;32377;52.182;5.398;2022-08-11T00:27:04;7.93;;;3.10;;
46651;SDS011;32377;52.182;5.398;2022-08-11T00:29:31;7.10;;;3.67;;
46651;SDS011;32377;52.182;5.398;2022-08-11T00:31:59;6.80;;;3.67;;
46651;SDS011;32377;52.182;5.398;2022-08-11T00:34:27;5.32;;;3.20;;
46651;SDS011;32377;52.182;5.398;2022-08-11T00:39:25;5.40;;;3.65;;
46651;SDS011;32377;52.182;5.398;2022-08-11T00:41:59;6.32;;;3.40;;
46651;SDS011;32377;52.182;5.398;2022-08-11T00:44:55;9.00;;;3.92;;
46651;SDS011;32377;52.182;5.398;2022-08-11T00:47:41;7.40;;;3.72;;
46651;SDS011;32377;52.182;5.398;2022-08-11T00:50:28;8.27;;;4.50;;
46651;SDS011;32377;52.182;5.398;2022-08-11T00:59:20;5.47;;;4.22;;
46651;SDS011;32377;52.182;5.398;2022-08-11T01:13:33;8.30;;;4.00;;
46651;SDS011;32377;52.182;5.398;2022-08-11T01:28:23;9.63;;;4.40;;
46651;SDS011;32377;52.182;5.398;2022-08-11T01:31:33;10.93;;;4.68;;
46651;SDS011;32377;52.182;5.398;2022-08-11T01:40:19;9.40;;;4.07;;
46651;SDS011;32377;52.182;5.398;2022-08-11T01:43:07;8.02;;;4.57;;
46651;SDS011;32377;52.182;5.398;2022-08-11T01:48:52;9.05;;;4.35;;
46651;SDS011;32377;52.182;5.398;2022-08-11T01:54:41;8.77;;;4.93;;
46651;SDS011;32377;52.182;5.398;2022-08-11T02:00:22;7.63;;;4.50;;
46651;SDS011;32377;52.182;5.398;2022-08-11T02:03:07;9.52;;;4.70;;
46651;SDS011;32377;52.182;5.398;2022-08-11T02:05:54;8.55;;;4.60;;
46651;SDS011;32377;52.182;5.398;2022-08-11T02:16:47;5.57;;;4.80;;
46651;SDS011;32377;52.182;5.398;2022-08-11T02:19:37;6.43;;;5.15;;
46651;SDS011;32377;52.182;5.398;2022-08-11T02:22:41;6.43;;;5.10;;
46651;SDS011;32377;52.182;5.398;2022-08-11T02:26:08;8.23;;;5.07;;
46651;SDS011;32377;52.182;5.398;2022-08-11T02:28:41;7.28;;;5.10;;
46651;SDS011;32377;52.182;5.398;2022-08-11T02:31:13;8.52;;;5.18;;
46651;SDS011;32377;52.182;5.398;2022-08-11T02:37:21;7.03;;;5.30;;
46651;SDS011;32377;52.182;5.398;2022-08-11T02:42:34;7.78;;;6.10;;
46651;SDS011;32377;52.182;5.398;2022-08-11T02:45:10;8.23;;;5.38;;
46651;SDS011;32377;52.182;5.398;2022-08-11T02:53:56;6.82;;;5.85;;
46651;SDS011;32377;52.182;5.398;2022-08-11T02:59:54;11.55;;;5.85;;
46651;SDS011;32377;52.182;5.398;2022-08-11T03:05:30;9.73;;;5.13;;
46651;SDS011;32377;52.182;5.398;2022-08-11T03:11:30;10.20;;;5.97;;
46651;SDS011;32377;52.182;5.398;2022-08-11T03:14:36;10.50;;;6.00;;
46651;SDS011;32377;52.182;5.398;2022-08-11T03:17:33;7.30;;;5.63;;
46651;SDS011;32377;52.182;5.398;2022-08-11T03:31:00;10.90;;;5.95;;
46651;SDS011;32377;52.182;5.398;2022-08-11T03:33:36;8.02;;;5.30;;
46651;SDS011;32377;52.182;5.398;2022-08-11T03:39:17;9.73;;;6.35;;
46651;SDS011;32377;52.182;5.398;2022-08-11T04:07:55;7.35;;;5.65;;
46651;SDS011;32377;52.182;5.398;2022-08-11T04:10:41;10.15;;;6.05;;
46651;SDS011;32377;52.182;5.398;2022-08-11T04:17:07;9.38;;;5.70;;
46651;SDS011;32377;52.182;5.398;2022-08-11T04:22:58;9.55;;;6.53;;
46651;SDS011;32377;52.182;5.398;2022-08-11T04:31:07;12.13;;;6.57;;
46651;SDS011;32377;52.182;5.398;2022-08-11T04:36:42;9.70;;;6.15;;
46651;SDS011;32377;52.182;5.398;2022-08-11T04:39:38;9.23;;;5.93;;
46651;SDS011;32377;52.182;5.398;2022-08-11T04:53:49;8.25;;;6.22;;
46651;SDS011;32377;52.182;5.398;2022-08-11T04:56:39;8.77;;;6.03;;
46651;SDS011;32377;52.182;5.398;2022-08-11T05:05:28;10.25;;;6.20;;
46651;SDS011;32377;52.182;5.398;2022-08-11T05:08:28;11.23;;;6.60;;
46651;SDS011;32377;52.182;5.398;2022-08-11T05:14:28;13.63;;;6.10;;
46651;SDS011;32377;52.182;5.398;2022-08-11T05:17:20;9.38;;;6.68;;
46651;SDS011;32377;52.182;5.398;2022-08-11T05:20:10;8.40;;;6.25;;
46651;SDS011;32377;52.182;5.398;2022-08-11T05:22:55;8.57;;;5.70;;
46651;SDS011;32377;52.182;5.398;2022-08-11T05:25:47;8.85;;;6.25;;
46651;SDS011;32377;52.182;5.398;2022-08-11T05:28:37;8.70;;;6.55;;
46651;SDS011;32377;52.182;5.398;2022-08-11T05:31:45;9.60;;;5.90;;
46651;SDS011;32377;52.182;5.398;2022-08-11T05:34:42;19.15;;;6.78;;
46651;SDS011;32377;52.182;5.398;2022-08-11T05:37:58;12.05;;;6.43;;
46651;SDS011;32377;52.182;5.398;2022-08-11T05:40:26;10.77;;;6.72;;
46651;SDS011;32377;52.182;5.398;2022-08-11T05:43:12;11.65;;;6.68;;
46651;SDS011;32377;52.182;5.398;2022-08-11T05:46:04;8.55;;;6.53;;
46651;SDS011;32377;52.182;5.398;2022-08-11T05:48:50;10.57;;;7.10;;
46651;SDS011;32377;52.182;5.398;2022-08-11T05:51:36;11.25;;;6.43;;
46651;SDS011;32377;52.182;5.398;2022-08-11T05:54:23;10.13;;;7.03;;
46651;SDS011;32377;52.182;5.398;2022-08-11T05:57:09;11.65;;;6.93;;
46651;SDS011;32377;52.182;5.398;2022-08-11T05:59:56;12.07;;;6.68;;
46651;SDS011;32377;52.182;5.398;2022-08-11T06:02:24;8.63;;;6.47;;
46651;SDS011;32377;52.182;5.398;2022-08-11T06:04:55;10.52;;;7.10;;
46651;SDS011;32377;52.182;5.398;2022-08-11T06:07:25;6.75;;;6.05;;
46651;SDS011;32377;52.182;5.398;2022-08-11T06:09:53;11.30;;;6.20;;
46651;SDS011;32377;52.182;5.398;2022-08-11T06:12:23;8.45;;;5.97;;
46651;SDS011;32377;52.182;5.398;2022-08-11T06:14:57;11.63;;;6.55;;
46651;SDS011;32377;52.182;5.398;2022-08-11T06:17:29;12.63;;;6.28;;
46651;SDS011;32377;52.182;5.398;2022-08-11T06:19:58;8.30;;;6.38;;
46651;SDS011;32377;52.182;5.398;2022-08-11T06:22:29;9.10;;;6.50;;
46651;SDS011;32377;52.182;5.398;2022-08-11T06:24:56;10.73;;;5.65;;
46651;SDS011;32377;52.182;5.398;2022-08-11T06:27:25;10.13;;;5.60;;
46651;SDS011;32377;52.182;5.398;2022-08-11T06:29:53;8.38;;;5.78;;
46651;SDS011;32377;52.182;5.398;2022-08-11T06:32:20;10.90;;;6.25;;
46651;SDS011;32377;52.182;5.398;2022-08-11T06:37:47;8.48;;;5.65;;
46651;SDS011;32377;52.182;5.398;2022-08-11T06:43:22;8.73;;;5.13;;
46651;SDS011;32377;52.182;5.398;2022-08-11T06:46:00;8.88;;;5.18;;
46651;SDS011;32377;52.182;5.398;2022-08-11T06:48:31;8.18;;;5.03;;
46651;SDS011;32377;52.182;5.398;2022-08-11T06:50:59;8.65;;;5.75;;
46651;SDS011;32377;52.182;5.398;2022-08-11T06:56:15;6.93;;;4.93;;
46651;SDS011;32377;52.182;5.398;2022-08-11T06:59:06;16.80;;;5.05;;
46651;SDS011;32377;52.182;5.398;2022-08-11T07:02:14;8.48;;;4.80;;
46651;SDS011;32377;52.182;5.398;2022-08-11T07:04:48;9.25;;;4.65;;
46651;SDS011;32377;52.182;5.398;2022-08-11T07:13:51;10.23;;;4.72;;
46651;SDS011;32377;52.182;5.398;2022-08-11T07:16:40;6.70;;;4.65;;
46651;SDS011;32377;52.182;5.398;2022-08-11T07:19:08;8.88;;;4.40;;
46651;SDS011;32377;52.182;5.398;2022-08-11T07:21:54;7.35;;;4.15;;
46651;SDS011;32377;52.182;5.398;2022-08-11T07:24:41;11.07;;;4.55;;
46651;SDS011;32377;52.182;5.398;2022-08-11T07:27:45;9.57;;;4.65;;
46651;SDS011;32377;52.182;5.398;2022-08-11T07:30:33;7.30;;;4.72;;
46651;SDS011;32377;52.182;5.398;2022-08-11T07:33:03;7.35;;;4.13;;
46651;SDS011;32377;52.182;5.398;2022-08-11T07:35:30;7.95;;;4.28;;
46651;SDS011;32377;52.182;5.398;2022-08-11T07:38:05;5.50;;;4.13;;
46651;SDS011;32377;52.182;5.398;2022-08-11T07:40:36;10.82;;;4.30;;
46651;SDS011;32377;52.182;5.398;2022-08-11T07:43:02;9.13;;;3.80;;
46651;SDS011;32377;52.182;5.398;2022-08-11T07:45:30;10.77;;;4.22;;
46651;SDS011;32377;52.182;5.398;2022-08-11T07:48:16;7.88;;;4.22;;
46651;SDS011;32377;52.182;5.398;2022-08-11T07:51:02;6.28;;;4.13;;
46651;SDS011;32377;52.182;5.398;2022-08-11T07:53:46;6.97;;;3.95;;
46651;SDS011;32377;52.182;5.398;2022-08-11T07:56:12;6.90;;;3.75;;
46651;SDS011;32377;52.182;5.398;2022-08-11T07:58:40;5.88;;;3.67;;
46651;SDS011;32377;52.182;5.398;2022-08-11T08:01:25;6.40;;;3.88;;
46651;SDS011;32377;52.182;5.398;2022-08-11T08:04:11;5.60;;;3.53;;
46651;SDS011;32377;52.182;5.398;2022-08-11T08:06:58;5.75;;;3.47;;
46651;SDS011;32377;52.182;5.398;2022-08-11T08:09:46;6.88;;;3.33;;
46651;SDS011;32377;52.182;5.398;2022-08-11T08:12:31;9.20;;;3.47;;
46651;SDS011;32377;52.182;5.398;2022-08-11T08:15:16;7.18;;;3.90;;
46651;SDS011;32377;52.182;5.398;2022-08-11T08:18:03;5.22;;;3.28;;
46651;SDS011;32377;52.182;5.398;2022-08-11T08:20:38;10.75;;;3.63;;
46651;SDS011;32377;52.182;5.398;2022-08-11T08:23:08;4.78;;;3.63;;
46651;SDS011;32377;52.182;5.398;2022-08-11T08:25:35;6.47;;;3.47;;
46651;SDS011;32377;52.182;5.398;2022-08-11T08:28:25;6.68;;;3.25;;
46651;SDS011;32377;52.182;5.398;2022-08-11T08:30:49;4.60;;;3.15;;
46651;SDS011;32377;52.182;5.398;2022-08-11T08:33:23;6.78;;;3.50;;
46651;SDS011;32377;52.182;5.398;2022-08-11T08:35:52;8.65;;;3.15;;
46651;SDS011;32377;52.182;5.398;2022-08-11T08:38:48;9.00;;;3.42;;
46651;SDS011;32377;52.182;5.398;2022-08-11T08:41:22;7.85;;;3.28;;
46651;SDS011;32377;52.182;5.398;2022-08-11T08:43:52;5.72;;;3.17;;
46651;SDS011;32377;52.182;5.398;2022-08-11T08:46:21;9.60;;;3.38;;
46651;SDS011;32377;52.182;5.398;2022-08-11T08:48:54;6.35;;;3.00;;
46651;SDS011;32377;52.182;5.398;2022-08-11T08:51:23;8.65;;;3.10;;
46651;SDS011;32377;52.182;5.398;2022-08-11T08:54:00;6.22;;;3.03;;
46651;SDS011;32377;52.182;5.398;2022-08-11T08:56:29;7.53;;;2.70;;
46651;SDS011;32377;52.182;5.398;2022-08-11T08:58:58;3.88;;;2.92;;
46651;SDS011;32377;52.182;5.398;2022-08-11T09:01:29;3.65;;;2.50;;
46651;SDS011;32377;52.182;5.398;2022-08-11T09:04:00;5.15;;;2.83;;
46651;SDS011;32377;52.182;5.398;2022-08-11T09:06:29;5.93;;;2.72;;
46651;SDS011;32377;52.182;5.398;2022-08-11T09:08:56;10.13;;;2.80;;
46651;SDS011;32377;52.182;5.398;2022-08-11T09:11:23;7.78;;;3.10;;
46651;SDS011;32377;52.182;5.398;2022-08-11T09:16:34;6.75;;;3.72;;
46651;SDS011;32377;52.182;5.398;2022-08-11T09:19:00;7.97;;;3.08;;
46651;SDS011;32377;52.182;5.398;2022-08-11T09:21:27;6.50;;;2.60;;
46651;SDS011;32377;52.182;5.398;2022-08-11T09:23:53;10.02;;;3.05;;
46651;SDS011;32377;52.182;5.398;2022-08-11T09:26:38;7.90;;;2.90;;
46651;SDS011;32377;52.182;5.398;2022-08-11T09:29:25;9.25;;;2.80;;
46651;SDS011;32377;52.182;5.398;2022-08-11T09:31:52;5.40;;;2.78;;
46651;SDS011;32377;52.182;5.398;2022-08-11T09:34:18;3.55;;;2.70;;
46651;SDS011;32377;52.182;5.398;2022-08-11T09:36:44;5.25;;;3.15;;
46651;SDS011;32377;52.182;5.398;2022-08-11T09:39:29;9.00;;;3.03;;
46651;SDS011;32377;52.182;5.398;2022-08-11T09:42:15;6.68;;;2.60;;
46651;SDS011;32377;52.182;5.398;2022-08-11T09:44:41;3.88;;;2.60;;
46651;SDS011;32377;52.182;5.398;2022-08-11T09:49:52;4.78;;;2.63;;
46651;SDS011;32377;52.182;5.398;2022-08-11T09:52:23;4.22;;;2.70;;
46651;SDS011;32377;52.182;5.398;2022-08-11T09:54:50;6.85;;;2.80;;
46651;SDS011;32377;52.182;5.398;2022-08-11T09:57:18;4.05;;;2.72;;
46651;SDS011;32377;52.182;5.398;2022-08-11T10:00:04;5.78;;;2.55;;
46651;SDS011;32377;52.182;5.398;2022-08-11T10:02:36;5.68;;;2.95;;
46651;SDS011;32377;52.182;5.398;2022-08-11T10:05:06;4.18;;;2.72;;
46651;SDS011;32377;52.182;5.398;2022-08-11T10:07:51;6.00;;;2.80;;
46651;SDS011;32377;52.182;5.398;2022-08-11T10:10:18;8.00;;;2.72;;
46651;SDS011;32377;52.182;5.398;2022-08-11T10:12:47;6.15;;;2.60;;
46651;SDS011;32377;52.182;5.398;2022-08-11T10:15:15;4.38;;;2.97;;
46651;SDS011;32377;52.182;5.398;2022-08-11T10:18:08;5.30;;;2.60;;
46651;SDS011;32377;52.182;5.398;2022-08-11T10:21:00;4.93;;;2.80;;
46651;SDS011;32377;52.182;5.398;2022-08-11T10:23:30;10.27;;;2.70;;
46651;SDS011;32377;52.182;5.398;2022-08-11T10:26:17;2.47;;;2.20;;
46651;SDS011;32377;52.182;5.398;2022-08-11T10:29:03;4.45;;;2.28;;
46651;SDS011;32377;52.182;5.398;2022-08-11T10:31:53;5.45;;;2.45;;
46651;SDS011;32377;52.182;5.398;2022-08-11T10:34:39;11.90;;;2.53;;
46651;SDS011;32377;52.182;5.398;2022-08-11T10:37:06;3.75;;;2.40;;
46651;SDS011;32377;52.182;5.398;2022-08-11T10:39:32;6.75;;;3.00;;
46651;SDS011;32377;52.182;5.398;2022-08-11T10:41:59;3.90;;;1.92;;
46651;SDS011;32377;52.182;5.398;2022-08-11T10:44:46;3.47;;;2.25;;
46651;SDS011;32377;52.182;5.398;2022-08-11T10:47:14;5.57;;;2.13;;
46651;SDS011;32377;52.182;5.398;2022-08-11T10:50:03;3.88;;;2.30;;
46651;SDS011;32377;52.182;5.398;2022-08-11T10:52:52;5.97;;;2.10;;
46651;SDS011;32377;52.182;5.398;2022-08-11T10:55:37;5.80;;;2.20;;
46651;SDS011;32377;52.182;5.398;2022-08-11T10:58:22;3.30;;;2.45;;
46651;SDS011;32377;52.182;5.398;2022-08-11T11:01:08;5.47;;;2.40;;
46651;SDS011;32377;52.182;5.398;2022-08-11T11:03:34;5.65;;;2.10;;
46651;SDS011;32377;52.182;5.398;2022-08-11T11:06:07;5.20;;;1.98;;
46651;SDS011;32377;52.182;5.398;2022-08-11T11:08:50;5.15;;;1.98;;
46651;SDS011;32377;52.182;5.398;2022-08-11T11:11:44;3.05;;;2.28;;
46651;SDS011;32377;52.182;5.398;2022-08-11T11:14:36;7.38;;;2.42;;
46651;SDS011;32377;52.182;5.398;2022-08-11T11:17:27;6.13;;;2.25;;
46651;SDS011;32377;52.182;5.398;2022-08-11T11:20:22;12.35;;;2.20;;
46651;SDS011;32377;52.182;5.398;2022-08-11T11:22:55;6.25;;;2.08;;
46651;SDS011;32377;52.182;5.398;2022-08-11T11:30:57;4.82;;;2.35;;
46651;SDS011;32377;52.182;5.398;2022-08-11T11:33:35;5.32;;;2.30;;
46651;SDS011;32377;52.182;5.398;2022-08-11T11:36:24;6.80;;;2.35;;
46651;SDS011;32377;52.182;5.398;2022-08-11T11:39:06;7.53;;;2.45;;
46651;SDS011;32377;52.182;5.398;2022-08-11T11:41:33;3.15;;;2.03;;
46651;SDS011;32377;52.182;5.398;2022-08-11T11:44:00;3.75;;;2.00;;
46651;SDS011;32377;52.182;5.398;2022-08-11T11:46:26;5.72;;;2.10;;
46651;SDS011;32377;52.182;5.398;2022-08-11T11:48:53;5.00;;;1.88;;
46651;SDS011;32377;52.182;5.398;2022-08-11T11:51:23;4.88;;;2.10;;
46651;SDS011;32377;52.182;5.398;2022-08-11T11:53:50;3.90;;;1.88;;
46651;SDS011;32377;52.182;5.398;2022-08-11T11:56:17;3.20;;;1.85;;
46651;SDS011;32377;52.182;5.398;2022-08-11T11:58:45;7.57;;;1.90;;
46651;SDS011;32377;52.182;5.398;2022-08-11T12:01:31;4.45;;;2.00;;
46651;SDS011;32377;52.182;5.398;2022-08-11T12:03:58;4.75;;;1.95;;
46651;SDS011;32377;52.182;5.398;2022-08-11T12:06:27;2.13;;;1.65;;
46651;SDS011;32377;52.182;5.398;2022-08-11T12:08:54;2.33;;;1.55;;
46651;SDS011;32377;52.182;5.398;2022-08-11T12:11:23;4.47;;;1.95;;
46651;SDS011;32377;52.182;5.398;2022-08-11T12:14:09;2.80;;;1.70;;
46651;SDS011;32377;52.182;5.398;2022-08-11T12:16:36;2.78;;;1.88;;
46651;SDS011;32377;52.182;5.398;2022-08-11T12:19:09;5.63;;;1.73;;
46651;SDS011;32377;52.182;5.398;2022-08-11T12:21:38;3.08;;;1.80;;
46651;SDS011;32377;52.182;5.398;2022-08-11T12:24:24;6.30;;;2.00;;
46651;SDS011;32377;52.182;5.398;2022-08-11T12:27:08;5.00;;;2.00;;
46651;SDS011;32377;52.182;5.398;2022-08-11T12:29:49;4.13;;;1.80;;
46651;SDS011;32377;52.182;5.398;2022-08-11T12:32:17;5.95;;;2.00;;
46651;SDS011;32377;52.182;5.398;2022-08-11T12:34:51;7.63;;;2.10;;
46651;SDS011;32377;52.182;5.398;2022-08-11T12:37:19;5.03;;;1.88;;
46651;SDS011;32377;52.182;5.398;2022-08-11T12:39:49;3.78;;;1.95;;
46651;SDS011;32377;52.182;5.398;2022-08-11T12:42:40;5.10;;;2.17;;
46651;SDS011;32377;52.182;5.398;2022-08-11T12:45:26;5.80;;;2.10;;
46651;SDS011;32377;52.182;5.398;2022-08-11T12:48:04;3.72;;;1.98;;
46651;SDS011;32377;52.182;5.398;2022-08-11T12:50:59;4.38;;;2.05;;
46651;SDS011;32377;52.182;5.398;2022-08-11T12:53:51;7.57;;;1.70;;
46651;SDS011;32377;52.182;5.398;2022-08-11T12:56:27;4.65;;;2.13;;
46651;SDS011;32377;52.182;5.398;2022-08-11T12:59:19;8.05;;;1.88;;
46651;SDS011;32377;52.182;5.398;2022-08-11T13:02:04;3.10;;;2.00;;
46651;SDS011;32377;52.182;5.398;2022-08-11T13:04:48;3.08;;;1.58;;
46651;SDS011;32377;52.182;5.398;2022-08-11T13:07:24;3.20;;;1.60;;
46651;SDS011;32377;52.182;5.398;2022-08-11T13:09:51;3.17;;;1.77;;
46651;SDS011;32377;52.182;5.398;2022-08-11T13:12:19;6.88;;;1.85;;
46651;SDS011;32377;52.182;5.398;2022-08-11T13:15:05;4.55;;;1.60;;
46651;SDS011;32377;52.182;5.398;2022-08-11T13:17:33;2.35;;;1.80;;
46651;SDS011;32377;52.182;5.398;2022-08-11T13:19:59;1.85;;;1.75;;
46651;SDS011;32377;52.182;5.398;2022-08-11T13:22:26;2.63;;;1.77;;
46651;SDS011;32377;52.182;5.398;2022-08-11T13:24:53;3.72;;;2.03;;
46651;SDS011;32377;52.182;5.398;2022-08-11T13:27:21;3.38;;;1.70;;
46651;SDS011;32377;52.182;5.398;2022-08-11T13:29:48;5.60;;;1.90;;
46651;SDS011;32377;52.182;5.398;2022-08-11T13:32:14;4.53;;;1.90;;
46651;SDS011;32377;52.182;5.398;2022-08-11T13:34:41;7.65;;;1.63;;
46651;SDS011;32377;52.182;5.398;2022-08-11T13:37:09;4.15;;;2.08;;
46651;SDS011;32377;52.182;5.398;2022-08-11T13:39:37;3.70;;;1.98;;
46651;SDS011;32377;52.182;5.398;2022-08-11T13:42:08;2.63;;;1.70;;
46651;SDS011;32377;52.182;5.398;2022-08-11T13:44:34;5.68;;;2.35;;
46651;SDS011;32377;52.182;5.398;2022-08-11T13:47:03;3.90;;;2.00;;
46651;SDS011;32377;52.182;5.398;2022-08-11T13:49:32;3.10;;;1.98;;
46651;SDS011;32377;52.182;5.398;2022-08-11T13:52:02;4.90;;;1.83;;
46651;SDS011;32377;52.182;5.398;2022-08-11T13:54:33;3.80;;;1.50;;
46651;SDS011;32377;52.182;5.398;2022-08-11T13:57:03;5.63;;;2.30;;
46651;SDS011;32377;52.182;5.398;2022-08-11T13:59:31;3.60;;;2.05;;
46651;SDS011;32377;52.182;5.398;2022-08-11T14:02:00;6.13;;;2.08;;
46651;SDS011;32377;52.182;5.398;2022-08-11T14:04:31;3.35;;;1.90;;
46651;SDS011;32377;52.182;5.398;2022-08-11T14:07:07;6.07;;;2.08;;
46651;SDS011;32377;52.182;5.398;2022-08-11T14:09:35;3.33;;;1.88;;
46651;SDS011;32377;52.182;5.398;2022-08-11T14:12:06;2.95;;;1.80;;
46651;SDS011;32377;52.182;5.398;2022-08-11T14:15:04;2.10;;;1.90;;
46651;SDS011;32377;52.182;5.398;2022-08-11T14:17:34;12.45;;;2.35;;
46651;SDS011;32377;52.182;5.398;2022-08-11T14:20:03;3.45;;;1.90;;
46651;SDS011;32377;52.182;5.398;2022-08-11T14:22:32;2.35;;;1.90;;
46651;SDS011;32377;52.182;5.398;2022-08-11T14:25:02;6.05;;;2.15;;
46651;SDS011;32377;52.182;5.398;2022-08-11T14:27:28;7.90;;;1.85;;
46651;SDS011;32377;52.182;5.398;2022-08-11T14:29:55;3.67;;;2.13;;
46651;SDS011;32377;52.182;5.398;2022-08-11T14:32:21;4.55;;;1.92;;
46651;SDS011;32377;52.182;5.398;2022-08-11T14:34:49;5.25;;;1.90;;
46651;SDS011;32377;52.182;5.398;2022-08-11T14:37:19;2.20;;;1.77;;
46651;SDS011;32377;52.182;5.398;2022-08-11T14:39:51;4.78;;;2.05;;
46651;SDS011;32377;52.182;5.398;2022-08-11T14:42:18;4.32;;;1.70;;
46651;SDS011;32377;52.182;5.398;2022-08-11T14:45:09;2.55;;;1.90;;
46651;SDS011;32377;52.182;5.398;2022-08-11T14:47:58;3.28;;;1.90;;
46651;SDS011;32377;52.182;5.398;2022-08-11T14:50:26;8.23;;;1.95;;
46651;SDS011;32377;52.182;5.398;2022-08-11T14:52:55;5.32;;;1.95;;
46651;SDS011;32377;52.182;5.398;2022-08-11T14:55:24;5.65;;;1.65;;
46651;SDS011;32377;52.182;5.398;2022-08-11T14:58:13;2.42;;;1.48;;
46651;SDS011;32377;52.182;5.398;2022-08-11T15:00:41;7.40;;;1.92;;
46651;SDS011;32377;52.182;5.398;2022-08-11T15:03:09;3.83;;;1.73;;
46651;SDS011;32377;52.182;5.398;2022-08-11T15:08:19;5.20;;;2.00;;
46651;SDS011;32377;52.182;5.398;2022-08-11T15:11:05;5.07;;;1.80;;
46651;SDS011;32377;52.182;5.398;2022-08-11T15:13:52;3.55;;;1.80;;
46651;SDS011;32377;52.182;5.398;2022-08-11T15:16:19;3.47;;;2.05;;
46651;SDS011;32377;52.182;5.398;2022-08-11T15:19:05;3.33;;;1.70;;
46651;SDS011;32377;52.182;5.398;2022-08-11T15:21:31;9.00;;;2.00;;
46651;SDS011;32377;52.182;5.398;2022-08-11T15:24:15;4.03;;;1.63;;
46651;SDS011;32377;52.182;5.398;2022-08-11T15:26:44;2.63;;;1.33;;
46651;SDS011;32377;52.182;5.398;2022-08-11T15:29:33;6.15;;;2.20;;
46651;SDS011;32377;52.182;5.398;2022-08-11T15:32:20;5.45;;;1.70;;
46651;SDS011;32377;52.182;5.398;2022-08-11T15:35:00;5.93;;;1.92;;
46651;SDS011;32377;52.182;5.398;2022-08-11T15:37:46;7.88;;;2.15;;
46651;SDS011;32377;52.182;5.398;2022-08-11T15:40:29;3.33;;;1.60;;
46651;SDS011;32377;52.182;5.398;2022-08-11T15:43:20;4.20;;;1.92;;
46651;SDS011;32377;52.182;5.398;2022-08-11T15:46:11;6.38;;;1.77;;
46651;SDS011;32377;52.182;5.398;2022-08-11T15:51:35;2.50;;;1.80;;
46651;SDS011;32377;52.182;5.398;2022-08-11T15:54:22;4.25;;;1.73;;
46651;SDS011;32377;52.182;5.398;2022-08-11T15:56:49;2.63;;;1.98;;
46651;SDS011;32377;52.182;5.398;2022-08-11T15:59:18;3.28;;;1.70;;
46651;SDS011;32377;52.182;5.398;2022-08-11T16:02:03;5.57;;;1.77;;
46651;SDS011;32377;52.182;5.398;2022-08-11T16:04:49;7.65;;;2.15;;
46651;SDS011;32377;52.182;5.398;2022-08-11T16:07:16;7.45;;;2.75;;
46651;SDS011;32377;52.182;5.398;2022-08-11T16:12:20;6.72;;;2.15;;
46651;SDS011;32377;52.182;5.398;2022-08-11T16:14:50;4.32;;;1.90;;
46651;SDS011;32377;52.182;5.398;2022-08-11T16:17:42;3.42;;;2.28;;
46651;SDS011;32377;52.182;5.398;2022-08-11T16:20:13;5.33;;;2.10;;
46651;SDS011;32377;52.182;5.398;2022-08-11T16:22:43;4.50;;;2.25;;
46651;SDS011;32377;52.182;5.398;2022-08-11T16:25:11;4.35;;;1.90;;
46651;SDS011;32377;52.182;5.398;2022-08-11T16:27:47;5.80;;;2.13;;
46651;SDS011;32377;52.182;5.398;2022-08-11T16:30:15;3.72;;;1.73;;
46651;SDS011;32377;52.182;5.398;2022-08-11T16:32:42;3.92;;;2.00;;
46651;SDS011;32377;52.182;5.398;2022-08-11T16:35:12;4.53;;;1.83;;
46651;SDS011;32377;52.182;5.398;2022-08-11T16:37:59;4.78;;;2.10;;
46651;SDS011;32377;52.182;5.398;2022-08-11T16:40:45;6.00;;;3.30;;
46651;SDS011;32377;52.182;5.398;2022-08-11T16:43:14;4.00;;;2.05;;
46651;SDS011;32377;52.182;5.398;2022-08-11T16:46:00;8.45;;;1.90;;
46651;SDS011;32377;52.182;5.398;2022-08-11T16:48:47;3.95;;;2.05;;
46651;SDS011;32377;52.182;5.398;2022-08-11T16:51:14;5.70;;;1.88;;
46651;SDS011;32377;52.182;5.398;2022-08-11T16:53:41;5.15;;;1.80;;
46651;SDS011;32377;52.182;5.398;2022-08-11T16:56:08;2.58;;;1.90;;
46651;SDS011;32377;52.182;5.398;2022-08-11T16:58:38;3.58;;;1.77;;
46651;SDS011;32377;52.182;5.398;2022-08-11T17:01:24;4.60;;;1.60;;
46651;SDS011;32377;52.182;5.398;2022-08-11T17:03:52;4.10;;;1.30;;
46651;SDS011;32377;52.182;5.398;2022-08-11T17:06:46;6.55;;;1.83;;
46651;SDS011;32377;52.182;5.398;2022-08-11T17:09:31;8.27;;;1.70;;
46651;SDS011;32377;52.182;5.398;2022-08-11T17:12:19;4.10;;;2.05;;
46651;SDS011;32377;52.182;5.398;2022-08-11T17:15:08;5.32;;;2.10;;
46651;SDS011;32377;52.182;5.398;2022-08-11T17:18:01;3.28;;;2.05;;
46651;SDS011;32377;52.182;5.398;2022-08-11T17:20:30;5.28;;;1.75;;
46651;SDS011;32377;52.182;5.398;2022-08-11T17:22:57;3.45;;;1.42;;
46651;SDS011;32377;52.182;5.398;2022-08-11T17:25:45;4.15;;;1.48;;
46651;SDS011;32377;52.182;5.398;2022-08-11T17:28:12;3.05;;;1.63;;
46651;SDS011;32377;52.182;5.398;2022-08-11T17:30:42;5.70;;;1.55;;
46651;SDS011;32377;52.182;5.398;2022-08-11T17:33:27;5.57;;;1.77;;
46651;SDS011;32377;52.182;5.398;2022-08-11T17:36:14;2.03;;;1.63;;
46651;SDS011;32377;52.182;5.398;2022-08-11T17:38:42;3.33;;;1.33;;
46651;SDS011;32377;52.182;5.398;2022-08-11T17:41:09;7.07;;;1.63;;
46651;SDS011;32377;52.182;5.398;2022-08-11T17:43:55;3.40;;;1.23;;
46651;SDS011;32377;52.182;5.398;2022-08-11T17:46:42;4.68;;;1.38;;
46651;SDS011;32377;52.182;5.398;2022-08-11T17:49:27;8.93;;;1.95;;
46651;SDS011;32377;52.182;5.398;2022-08-11T17:52:01;4.63;;;1.60;;
46651;SDS011;32377;52.182;5.398;2022-08-11T17:54:46;7.68;;;1.55;;
46651;SDS011;32377;52.182;5.398;2022-08-11T17:57:33;6.38;;;1.48;;
46651;SDS011;32377;52.182;5.398;2022-08-11T18:00:19;5.45;;;1.40;;
46651;SDS011;32377;52.182;5.398;2022-08-11T18:02:46;2.28;;;1.40;;
46651;SDS011;32377;52.182;5.398;2022-08-11T18:05:32;4.25;;;1.70;;
46651;SDS011;32377;52.182;5.398;2022-08-11T18:08:02;4.65;;;1.20;;
46651;SDS011;32377;52.182;5.398;2022-08-11T18:10:51;7.80;;;1.40;;
46651;SDS011;32377;52.182;5.398;2022-08-11T18:13:37;6.78;;;1.40;;
46651;SDS011;32377;52.182;5.398;2022-08-11T18:16:24;6.22;;;1.60;;
46651;SDS011;32377;52.182;5.398;2022-08-11T18:19:08;7.68;;;1.50;;
46651;SDS011;32377;52.182;5.398;2022-08-11T18:21:54;4.35;;;1.08;;
46651;SDS011;32377;52.182;5.398;2022-08-11T18:24:50;4.32;;;1.73;;
46651;SDS011;32377;52.182;5.398;2022-08-11T18:27:46;5.25;;;1.50;;
46651;SDS011;32377;52.182;5.398;2022-08-11T18:30:35;5.13;;;1.67;;
46651;SDS011;32377;52.182;5.398;2022-08-11T18:33:21;4.32;;;1.60;;
46651;SDS011;32377;52.182;5.398;2022-08-11T18:36:10;3.97;;;1.48;;
46651;SDS011;32377;52.182;5.398;2022-08-11T18:38:57;3.72;;;1.35;;
46651;SDS011;32377;52.182;5.398;2022-08-11T18:41:44;4.70;;;1.60;;
46651;SDS011;32377;52.182;5.398;2022-08-11T18:44:30;3.40;;;1.95;;
46651;SDS011;32377;52.182;5.398;2022-08-11T18:47:17;6.90;;;2.00;;
46651;SDS011;32377;52.182;5.398;2022-08-11T18:50:04;4.70;;;1.67;;
46651;SDS011;32377;52.182;5.398;2022-08-11T18:52:52;5.78;;;1.95;;
46651;SDS011;32377;52.182;5.398;2022-08-11T18:55:38;3.35;;;1.65;;
46651;SDS011;32377;52.182;5.398;2022-08-11T18:58:28;4.40;;;2.00;;